createdAt,value
2022-12-19T00:00:46.879Z,19.56
2022-12-19T00:03:13.492Z,19.57
2022-12-19T00:05:39.908Z,19.56
2022-12-19T00:08:17.150Z,19.56
2022-12-19T00:10:44.041Z,19.58
2022-12-19T00:13:10.382Z,19.58
2022-12-19T00:15:36.725Z,19.59
2022-12-19T00:18:03.061Z,19.60
2022-12-19T00:20:29.390Z,19.60
2022-12-19T00:22:55.697Z,19.59
2022-12-19T00:25:22.031Z,19.58
2022-12-19T00:27:48.349Z,19.59
2022-12-19T00:30:14.665Z,19.58
2022-12-19T00:32:41.264Z,19.57
2022-12-19T00:35:07.645Z,19.56
2022-12-19T00:37:33.960Z,19.57
2022-12-19T00:40:00.276Z,19.57
2022-12-19T00:42:26.594Z,19.57
2022-12-19T00:44:52.920Z,19.58
2022-12-19T00:47:19.257Z,19.57
2022-12-19T00:49:45.572Z,19.58
2022-12-19T00:52:16.481Z,19.57
2022-12-19T00:54:42.849Z,19.57
2022-12-19T00:57:09.190Z,19.56
2022-12-19T00:59:35.673Z,19.55
2022-12-19T01:02:02.122Z,19.55
2022-12-19T01:04:31.234Z,19.55
2022-12-19T01:07:01.552Z,19.55
2022-12-19T01:09:30.871Z,19.55
2022-12-19T01:12:15.878Z,19.56
2022-12-19T01:14:42.195Z,19.57
2022-12-19T01:17:08.511Z,19.59
2022-12-19T01:19:37.809Z,19.58
2022-12-19T01:22:08.733Z,19.58
2022-12-19T01:24:35.196Z,19.57
2022-12-19T01:27:01.549Z,19.57
2022-12-19T01:29:27.917Z,19.58
2022-12-19T01:31:54.264Z,19.57
2022-12-19T01:34:20.602Z,19.55
2022-12-19T01:36:47.133Z,19.58
2022-12-19T01:39:13.453Z,19.59
2022-12-19T01:41:39.773Z,19.59
2022-12-19T01:44:07.686Z,19.60
2022-12-19T01:46:47.629Z,19.60
2022-12-19T01:49:25.224Z,19.59
2022-12-19T01:51:51.890Z,19.58
2022-12-19T01:54:19.951Z,19.57
2022-12-19T01:56:47.317Z,19.57
2022-12-19T01:59:14.414Z,19.56
2022-12-19T02:01:51.723Z,19.57
2022-12-19T02:04:24.136Z,19.57
2022-12-19T02:06:51.877Z,19.58
2022-12-19T02:09:23.676Z,19.58
2022-12-19T02:11:50.889Z,19.58
2022-12-19T02:14:17.268Z,19.58
2022-12-19T02:16:46.668Z,19.59
2022-12-19T02:19:23.691Z,19.58
2022-12-19T02:22:08.929Z,19.58
2022-12-19T02:24:44.324Z,19.56
2022-12-19T02:27:18.823Z,19.56
2022-12-19T02:29:50.373Z,19.57
2022-12-19T02:32:20.646Z,19.58
2022-12-19T02:44:02.053Z,19.59
2022-12-19T02:46:33.794Z,19.58
2022-12-19T02:49:00.588Z,19.56
2022-12-19T02:51:27.051Z,19.56
2022-12-19T02:53:53.447Z,19.56
2022-12-19T02:56:38.669Z,19.55
2022-12-19T02:59:08.215Z,19.56
2022-12-19T03:01:48.582Z,19.57
2022-12-19T03:04:16.964Z,19.59
2022-12-19T03:06:53.189Z,19.58
2022-12-19T03:09:40.874Z,19.57
2022-12-19T03:12:09.892Z,19.59
2022-12-19T03:14:39.260Z,19.56
2022-12-19T03:17:06.860Z,19.55
2022-12-19T03:19:33.698Z,19.55
2022-12-19T03:22:00.034Z,19.55
2022-12-19T03:24:26.370Z,19.55
2022-12-19T03:26:58.472Z,19.56
2022-12-19T03:29:29.534Z,19.56
2022-12-19T03:31:56.349Z,19.56
2022-12-19T03:34:24.959Z,19.58
2022-12-19T03:36:55.351Z,19.57
2022-12-19T03:39:21.676Z,19.56
2022-12-19T03:42:06.789Z,19.56
2022-12-19T03:44:33.645Z,19.55
2022-12-19T03:47:10.189Z,19.55
2022-12-19T03:49:37.257Z,19.57
2022-12-19T03:52:21.774Z,19.57
2022-12-19T03:55:08.292Z,19.57
2022-12-19T03:57:40.102Z,19.58
2022-12-19T04:00:07.393Z,19.60
2022-12-19T04:02:39.783Z,19.60
2022-12-19T04:05:07.534Z,19.62
2022-12-19T04:07:33.847Z,19.62
2022-12-19T04:10:01.669Z,19.63
2022-12-19T04:12:29.587Z,19.61
2022-12-19T04:14:55.916Z,19.64
2022-12-19T04:17:41.225Z,19.63
2022-12-19T04:20:17.217Z,19.63
2022-12-19T04:22:51.117Z,19.62
2022-12-19T04:25:19.528Z,19.62
2022-12-19T04:27:48.230Z,19.63
2022-12-19T04:30:15.145Z,19.62
2022-12-19T04:32:41.461Z,19.63
2022-12-19T04:35:10.512Z,19.63
2022-12-19T04:37:36.840Z,19.62
2022-12-19T04:40:03.792Z,19.60
2022-12-19T04:42:30.155Z,19.61
2022-12-19T04:44:56.481Z,19.61
2022-12-19T04:47:22.957Z,19.61
2022-12-19T04:49:49.296Z,19.62
2022-12-19T04:52:15.625Z,19.62
2022-12-19T04:54:41.969Z,19.63
2022-12-19T04:57:08.289Z,19.63
2022-12-19T04:59:34.615Z,19.64
2022-12-19T05:02:01.071Z,19.65
2022-12-19T05:04:27.456Z,19.65
2022-12-19T05:06:53.831Z,19.66
2022-12-19T05:09:20.187Z,19.66
2022-12-19T05:11:46.514Z,19.65
2022-12-19T05:14:12.836Z,19.64
2022-12-19T05:16:39.170Z,19.64
2022-12-19T05:19:05.493Z,19.64
2022-12-19T05:21:31.863Z,19.64
2022-12-19T05:23:58.184Z,19.64
2022-12-19T05:26:24.515Z,19.64
2022-12-19T05:28:50.827Z,19.63
2022-12-19T05:31:17.939Z,19.64
2022-12-19T05:33:44.289Z,19.63
2022-12-19T05:36:10.848Z,19.63
2022-12-19T05:38:37.150Z,19.60
2022-12-19T05:41:07.078Z,19.61
2022-12-19T05:43:33.382Z,19.60
2022-12-19T05:45:59.911Z,19.62
2022-12-19T05:48:26.240Z,19.62
2022-12-19T05:50:52.570Z,19.63
2022-12-19T05:53:24.549Z,19.64
2022-12-19T05:55:52.277Z,19.65
2022-12-19T05:58:18.583Z,19.65
2022-12-19T06:00:44.921Z,19.66
2022-12-19T06:03:11.301Z,19.69
2022-12-19T06:05:38.245Z,19.67
2022-12-19T06:08:04.623Z,19.69
2022-12-19T06:10:31.013Z,19.68
2022-12-19T06:12:57.353Z,19.66
2022-12-19T06:15:23.686Z,19.66
2022-12-19T06:17:52.647Z,19.66
2022-12-19T06:20:18.977Z,19.67
2022-12-19T06:22:45.290Z,19.67
2022-12-19T06:25:11.614Z,19.66
2022-12-19T06:27:40.861Z,19.66
2022-12-19T06:30:07.359Z,19.67
2022-12-19T06:32:38.068Z,19.67
2022-12-19T06:35:05.166Z,19.60
2022-12-19T06:37:31.590Z,19.75
2022-12-19T06:39:57.946Z,19.73
2022-12-19T06:42:26.988Z,19.80
2022-12-19T06:45:12.293Z,19.79
2022-12-19T06:47:41.377Z,19.67
2022-12-19T06:50:07.761Z,19.67
2022-12-19T06:52:34.101Z,19.84
2022-12-19T06:55:00.537Z,19.87
2022-12-19T06:57:26.880Z,19.82
2022-12-19T06:59:53.197Z,19.79
2022-12-19T07:02:27.283Z,19.78
2022-12-19T07:04:57.886Z,19.79
2022-12-19T07:07:27.570Z,19.81
2022-12-19T07:09:56.600Z,19.82
2022-12-19T07:12:22.917Z,19.84
2022-12-19T07:14:53.355Z,19.85
2022-12-19T07:17:19.978Z,19.86
2022-12-19T07:19:46.469Z,19.88
2022-12-19T07:22:12.830Z,19.91
2022-12-19T07:24:39.153Z,20.13
2022-12-19T07:27:08.707Z,20.30
2022-12-19T07:29:35.035Z,20.40
2022-12-19T07:32:29.669Z,20.47
2022-12-19T07:34:56.142Z,20.51
2022-12-19T07:37:22.601Z,20.54
2022-12-19T07:39:48.930Z,20.58
2022-12-19T07:42:15.323Z,20.57
2022-12-19T07:44:41.663Z,20.63
2022-12-19T07:47:09.631Z,20.59
2022-12-19T07:49:35.975Z,20.62
2022-12-19T07:52:04.984Z,20.63
2022-12-19T07:54:31.380Z,20.67
2022-12-19T07:57:01.030Z,20.76
2022-12-19T07:59:31.212Z,20.78
2022-12-19T08:01:59.839Z,20.78
2022-12-19T08:04:26.311Z,20.79
2022-12-19T08:06:52.692Z,20.75
2022-12-19T08:09:28.783Z,20.79
2022-12-19T08:11:55.201Z,20.81
2022-12-19T08:14:21.517Z,20.82
2022-12-19T08:17:18.694Z,20.79
2022-12-19T08:19:34.254Z,20.82
2022-12-19T08:22:00.618Z,20.90
2022-12-19T08:24:26.946Z,20.96
2022-12-19T08:26:53.310Z,21.05
2022-12-19T08:29:19.627Z,21.02
2022-12-19T08:31:45.970Z,21.01
2022-12-19T08:34:12.324Z,21.05
2022-12-19T08:36:39.444Z,21.07
2022-12-19T08:39:06.041Z,21.11
2022-12-19T08:41:32.472Z,21.13
2022-12-19T08:43:58.797Z,21.18
2022-12-19T08:46:26.037Z,21.17
2022-12-19T08:49:04.637Z,21.16
2022-12-19T08:51:31.059Z,21.23
2022-12-19T08:53:58.223Z,21.21
2022-12-19T08:56:27.903Z,21.24
2022-12-19T08:58:55.959Z,21.21
2022-12-19T09:01:23.914Z,21.21
2022-12-19T09:04:34.800Z,21.20
2022-12-19T09:06:36.864Z,21.21
2022-12-19T09:09:03.862Z,21.22
2022-12-19T09:11:30.226Z,21.23
2022-12-19T09:14:03.090Z,21.24
2022-12-19T09:16:29.571Z,21.24
2022-12-19T09:18:56.937Z,21.30
2022-12-19T09:21:23.395Z,21.30
2022-12-19T09:23:50.263Z,21.28
2022-12-19T09:26:16.744Z,21.28
2022-12-19T09:28:43.834Z,21.27
2022-12-19T09:31:10.917Z,21.30
2022-12-19T09:33:43.100Z,21.32
2022-12-19T09:36:11.883Z,20.81
2022-12-19T09:38:45.336Z,19.98
2022-12-19T09:41:20.700Z,20.25
2022-12-19T09:44:05.864Z,20.46
2022-12-19T09:46:32.210Z,20.59
2022-12-19T09:48:58.579Z,20.66
2022-12-19T09:51:32.891Z,20.71
2022-12-19T09:54:05.243Z,20.74
2022-12-19T09:56:34.003Z,20.76
2022-12-19T09:59:34.272Z,20.78
2022-12-19T10:02:18.552Z,20.79
2022-12-19T10:04:47.879Z,20.80
2022-12-19T10:07:34.291Z,20.79
2022-12-19T10:12:39.022Z,20.79
2022-12-19T10:13:11.050Z,20.77
2022-12-19T10:16:00.222Z,20.76
2022-12-19T10:18:48.455Z,20.70
2022-12-19T10:21:36.982Z,20.82
2022-12-19T10:24:17.459Z,20.83
2022-12-19T10:26:48.226Z,20.95
2022-12-19T10:29:35.346Z,21.05
2022-12-19T10:32:11.006Z,21.11
2022-12-19T10:34:41.417Z,21.16
2022-12-19T10:37:43.867Z,21.18
2022-12-19T10:40:28.905Z,21.20
2022-12-19T10:42:57.316Z,21.23
2022-12-19T10:45:25.353Z,21.24
2022-12-19T10:47:54.687Z,21.25
2022-12-19T10:50:21.767Z,21.24
2022-12-19T10:52:56.746Z,21.27
2022-12-19T10:55:26.658Z,21.30
2022-12-19T10:57:53.007Z,21.32
2022-12-19T11:00:20.055Z,21.34
2022-12-19T11:02:49.887Z,21.36
2022-12-19T11:05:24.193Z,21.36
2022-12-19T11:08:00.496Z,21.39
2022-12-19T11:11:30.413Z,21.42
2022-12-19T11:19:19.790Z,21.43
2022-12-19T11:22:46.948Z,21.46
2022-12-19T11:29:16.787Z,21.45
2022-12-19T11:29:27.450Z,21.46
2022-12-19T11:29:43.950Z,21.33
2022-12-19T11:30:47.441Z,21.21
2022-12-19T11:33:14.006Z,21.49
2022-12-19T11:35:50.182Z,21.41
2022-12-19T11:38:17.665Z,21.24
2022-12-19T11:41:06.338Z,21.20
2022-12-19T11:43:52.196Z,21.29
2022-12-19T11:46:36.806Z,21.26
2022-12-19T11:49:10.030Z,21.17
2022-12-19T11:51:44.449Z,21.50
2022-12-19T11:54:18.924Z,21.61
2022-12-19T11:56:45.286Z,21.67
2022-12-19T11:59:21.943Z,21.69
2022-12-19T12:02:06.919Z,21.69
2022-12-19T12:04:38.114Z,21.70
2022-12-19T12:07:11.812Z,21.70
2022-12-19T12:13:45.653Z,21.72
2022-12-19T12:21:18.688Z,21.71
2022-12-19T12:26:33.480Z,21.74
2022-12-19T12:31:09.041Z,21.77
2022-12-19T12:31:09.680Z,21.79
2022-12-19T12:31:52.362Z,21.84
2022-12-19T12:31:56.860Z,21.84
2022-12-19T12:32:06.756Z,21.80
2022-12-19T12:35:42.374Z,21.80
2022-12-19T12:37:51.059Z,21.92
2022-12-19T12:39:18.331Z,21.94
2022-12-19T12:42:03.761Z,21.90
2022-12-19T12:44:35.441Z,21.88
2022-12-19T12:47:06.600Z,21.88
2022-12-19T12:49:38.989Z,21.89
2022-12-19T12:52:06.861Z,21.95
2022-12-19T12:54:34.103Z,21.95
2022-12-19T12:57:00.821Z,21.92
2022-12-19T12:59:27.867Z,21.93
2022-12-19T13:01:55.052Z,21.94
2022-12-19T13:04:25.362Z,21.93
2022-12-19T13:06:51.617Z,21.98
2022-12-19T13:09:17.847Z,22.15
2022-12-19T13:12:06.548Z,22.24
2022-12-19T13:14:35.696Z,22.31
2022-12-19T13:17:02.615Z,22.31
2022-12-19T13:19:29.652Z,22.29
2022-12-19T13:22:05.090Z,22.28
2022-12-19T13:24:37.845Z,22.30
2022-12-19T13:27:04.247Z,22.35
2022-12-19T13:29:32.145Z,22.37
2022-12-19T13:32:11.320Z,22.17
2022-12-19T13:34:37.688Z,22.13
2022-12-19T13:39:54.511Z,22.14
2022-12-19T13:40:10.896Z,22.14
2022-12-19T13:43:10.774Z,22.12
2022-12-19T13:45:37.953Z,21.88
2022-12-19T13:48:05.734Z,21.56
2022-12-19T13:50:36.249Z,21.49
2022-12-19T13:53:02.762Z,21.43
2022-12-19T13:55:29.578Z,21.40
2022-12-19T13:57:58.858Z,21.38
2022-12-19T14:00:46.334Z,21.38
2022-12-19T14:03:16.178Z,21.32
2022-12-19T14:06:17.015Z,21.33
2022-12-19T14:08:29.064Z,21.30
2022-12-19T14:11:36.817Z,21.28
2022-12-19T14:14:08.486Z,21.24
2022-12-19T14:16:45.023Z,21.31
2022-12-19T14:19:22.138Z,21.34
2022-12-19T14:22:11.161Z,21.28
2022-12-19T14:24:34.862Z,21.18
2022-12-19T14:28:19.582Z,21.13
2022-12-19T14:30:27.463Z,21.24
2022-12-19T14:33:47.266Z,21.28
2022-12-19T14:36:11.254Z,21.28
2022-12-19T14:39:25.379Z,21.28
2022-12-19T14:41:08.632Z,21.17
2022-12-19T14:43:58.989Z,21.22
2022-12-19T14:52:34.728Z,21.48
2022-12-19T14:54:01.421Z,21.46
2022-12-19T14:54:32.220Z,21.46
2022-12-19T14:56:16.053Z,21.49
2022-12-19T14:58:54.942Z,21.51
2022-12-19T15:01:10.280Z,21.52
2022-12-19T15:03:39.737Z,21.53
2022-12-19T15:07:05.758Z,21.47
2022-12-19T15:09:34.215Z,21.50
2022-12-19T15:12:56.509Z,21.51
2022-12-19T15:14:59.917Z,21.59
2022-12-19T15:17:26.530Z,22.00
2022-12-19T15:19:52.890Z,22.14
2022-12-19T15:22:19.325Z,22.22
2022-12-19T15:24:45.707Z,22.29
2022-12-19T15:27:13.153Z,22.36
2022-12-19T15:29:42.431Z,22.35
2022-12-19T15:32:15.677Z,22.38
2022-12-19T15:34:50.547Z,22.50
2022-12-19T15:37:17.860Z,22.51
2022-12-19T15:39:44.193Z,22.49
2022-12-19T15:42:15.483Z,22.37
2022-12-19T15:44:41.827Z,22.28
2022-12-19T15:47:15.047Z,22.31
2022-12-19T15:49:41.438Z,22.30
2022-12-19T15:52:15.606Z,22.35
2022-12-19T15:54:50.698Z,22.37
2022-12-19T15:57:17.452Z,22.41
2022-12-19T15:59:43.990Z,22.30
2022-12-19T16:02:21.472Z,22.33
2022-12-19T16:04:48.330Z,22.57
2022-12-19T16:07:15.477Z,22.69
2022-12-19T16:09:47.551Z,22.76
2022-12-19T16:12:18.438Z,22.67
2022-12-19T16:14:44.951Z,22.73
2022-12-19T16:17:18.757Z,22.70
2022-12-19T16:19:45.131Z,22.43
2022-12-19T16:22:15.436Z,22.39
2022-12-19T16:24:41.763Z,22.38
2022-12-19T16:27:09.514Z,22.38
2022-12-19T16:29:40.801Z,22.33
2022-12-19T16:32:11.841Z,22.40
2022-12-19T16:34:41.070Z,22.38
2022-12-19T16:37:07.400Z,22.25
2022-12-19T16:39:34.288Z,22.24
2022-12-19T16:42:00.616Z,22.47
2022-12-19T16:44:26.978Z,22.55
2022-12-19T16:46:53.379Z,22.56
2022-12-19T16:49:20.130Z,22.34
2022-12-19T16:51:46.468Z,21.99
2022-12-19T16:54:12.932Z,22.00
2022-12-19T16:56:40.646Z,22.12
2022-12-19T16:59:14.443Z,22.19
2022-12-19T17:01:42.561Z,22.20
2022-12-19T17:04:11.344Z,22.23
2022-12-19T17:06:41.108Z,22.24
2022-12-19T17:09:15.566Z,22.24
2022-12-19T17:11:44.648Z,22.23
2022-12-19T17:14:14.456Z,22.25
2022-12-19T17:16:40.868Z,22.25
2022-12-19T17:19:08.407Z,22.24
2022-12-19T17:21:37.685Z,22.28
2022-12-19T17:24:05.563Z,22.30
2022-12-19T17:26:31.998Z,22.26
2022-12-19T17:28:58.325Z,22.27
2022-12-19T17:31:26.536Z,22.25
2022-12-19T17:33:54.002Z,22.27
2022-12-19T17:36:26.026Z,22.27
2022-12-19T17:38:54.067Z,22.25
2022-12-19T17:41:20.393Z,22.25
2022-12-19T17:43:46.726Z,22.25
2022-12-19T17:46:19.414Z,22.27
2022-12-19T17:48:46.164Z,22.27
2022-12-19T17:51:12.481Z,22.28
2022-12-19T17:53:38.813Z,22.20
2022-12-19T17:56:05.167Z,21.90
2022-12-19T17:58:31.593Z,20.92
2022-12-19T18:00:57.984Z,21.16
2022-12-19T18:03:24.964Z,21.38
2022-12-19T18:05:52.214Z,21.40
2022-12-19T18:08:22.801Z,21.42
2022-12-19T18:10:56.935Z,21.38
2022-12-19T18:13:23.861Z,21.38
2022-12-19T18:15:50.240Z,21.37
2022-12-19T18:18:19.497Z,21.36
2022-12-19T18:20:46.059Z,21.36
2022-12-19T18:23:18.738Z,21.33
2022-12-19T18:25:45.071Z,21.33
2022-12-19T18:28:11.401Z,21.31
2022-12-19T18:30:37.906Z,21.29
2022-12-19T18:33:05.282Z,21.27
2022-12-19T18:35:32.542Z,21.25
2022-12-19T18:37:59.200Z,21.22
2022-12-19T18:40:31.180Z,21.21
2022-12-19T18:42:58.015Z,21.19
2022-12-19T18:45:34.077Z,21.24
2022-12-19T18:48:00.525Z,21.29
2022-12-19T18:50:26.935Z,21.33
2022-12-19T18:52:53.285Z,21.32
2022-12-19T18:55:20.426Z,21.30
2022-12-19T18:57:46.750Z,21.29
2022-12-19T19:00:16.975Z,21.24
2022-12-19T19:02:57.046Z,20.09
2022-12-19T19:05:24.573Z,20.48
2022-12-19T19:07:50.938Z,20.74
2022-12-19T19:10:18.088Z,20.79
2022-12-19T19:12:54.331Z,20.94
2022-12-19T19:15:21.110Z,20.99
2022-12-19T19:17:48.244Z,20.97
2022-12-19T19:20:14.584Z,20.88
2022-12-19T19:22:41.508Z,20.85
2022-12-19T19:25:07.985Z,20.90
2022-12-19T19:27:34.321Z,20.91
2022-12-19T19:30:00.653Z,20.98
2022-12-19T19:32:27.061Z,21.00
2022-12-19T19:34:55.517Z,21.01
2022-12-19T19:37:21.852Z,20.99
2022-12-19T19:39:48.186Z,20.98
2022-12-19T19:42:14.655Z,20.95
2022-12-19T19:44:40.995Z,20.93
2022-12-19T19:47:07.335Z,20.92
2022-12-19T19:49:36.639Z,20.91
2022-12-19T19:52:03.505Z,20.91
2022-12-19T19:54:30.409Z,20.93
2022-12-19T19:56:56.719Z,20.93
2022-12-19T19:59:23.068Z,20.92
2022-12-19T20:01:54.089Z,20.91
2022-12-19T20:04:20.719Z,20.90
2022-12-19T20:06:47.169Z,20.88
2022-12-19T20:09:13.508Z,20.87
2022-12-19T20:11:39.882Z,20.84
2022-12-19T20:14:06.213Z,20.83
2022-12-19T20:16:32.818Z,20.82
2022-12-19T20:18:59.619Z,20.81
2022-12-19T20:21:26.054Z,20.80
2022-12-19T20:23:52.390Z,20.80
2022-12-19T20:26:18.714Z,20.81
2022-12-19T20:28:48.823Z,20.82
2022-12-19T20:31:16.841Z,20.82
2022-12-19T20:33:43.236Z,20.83
2022-12-19T20:36:10.078Z,20.81
2022-12-19T20:38:36.467Z,20.80
2022-12-19T20:41:02.828Z,20.78
2022-12-19T20:43:29.170Z,20.78
2022-12-19T20:46:02.110Z,20.78
2022-12-19T20:48:28.549Z,20.76
2022-12-19T20:50:55.547Z,20.77
2022-12-19T20:53:21.862Z,20.77
2022-12-19T20:55:57.537Z,20.77
2022-12-19T20:58:24.693Z,20.78
2022-12-19T21:00:53.962Z,20.79
2022-12-19T21:03:29.351Z,20.77
2022-12-19T21:05:59.296Z,20.77
2022-12-19T21:08:25.634Z,20.76
2022-12-19T21:10:52.044Z,20.76
2022-12-19T21:13:18.362Z,20.75
2022-12-19T21:15:44.785Z,20.74
2022-12-19T21:18:11.184Z,20.73
2022-12-19T21:20:38.019Z,20.76
2022-12-19T21:23:04.589Z,20.79
2022-12-19T21:25:30.959Z,20.82
2022-12-19T21:28:00.996Z,20.81
2022-12-19T21:30:27.336Z,20.82
2022-12-19T21:32:53.742Z,20.83
2022-12-19T21:35:20.132Z,20.81
2022-12-19T21:37:50.079Z,20.81
2022-12-19T21:40:16.782Z,20.80
2022-12-19T21:42:43.159Z,20.79
2022-12-19T21:45:09.800Z,20.77
2022-12-19T21:47:39.186Z,20.75
2022-12-19T21:50:09.085Z,20.74
2022-12-19T21:52:35.480Z,20.70
2022-12-19T21:55:01.820Z,20.69
2022-12-19T21:57:28.145Z,20.70
2022-12-19T21:59:54.534Z,20.66
2022-12-19T22:02:21.094Z,20.65
2022-12-19T22:04:48.338Z,20.63
2022-12-19T22:07:14.924Z,20.63
2022-12-19T22:09:41.480Z,20.61
2022-12-19T22:12:08.798Z,20.59
2022-12-19T22:14:35.141Z,20.59
2022-12-19T22:17:01.500Z,20.58
2022-12-19T22:19:27.850Z,20.57
2022-12-19T22:21:54.166Z,20.57
2022-12-19T22:24:20.500Z,20.56
2022-12-19T22:26:46.840Z,20.58
2022-12-19T22:29:13.878Z,20.60
2022-12-19T22:31:40.708Z,20.57
2022-12-19T22:34:07.899Z,20.53
2022-12-19T22:36:34.754Z,20.51
2022-12-19T22:39:01.653Z,20.50
2022-12-19T22:41:28.023Z,20.48
2022-12-19T22:43:54.466Z,20.47
2022-12-19T22:46:26.219Z,20.45
2022-12-19T22:48:52.843Z,20.45
2022-12-19T22:51:19.429Z,20.45
2022-12-19T22:53:45.995Z,20.49
2022-12-19T22:56:18.429Z,20.51
2022-12-19T22:58:45.167Z,20.51
2022-12-19T23:01:12.401Z,20.49
2022-12-19T23:03:38.853Z,20.47
2022-12-19T23:06:05.313Z,20.45
2022-12-19T23:08:31.652Z,20.42
2022-12-19T23:10:58.043Z,20.41
2022-12-19T23:13:24.448Z,20.39
2022-12-19T23:15:50.799Z,20.38
2022-12-19T23:18:17.145Z,20.38
2022-12-19T23:20:43.492Z,20.36
2022-12-19T23:23:10.040Z,20.35
2022-12-19T23:25:39.458Z,20.34
2022-12-19T23:28:06.251Z,20.34
2022-12-19T23:30:32.753Z,20.33
2022-12-19T23:33:00.744Z,20.31
2022-12-19T23:35:27.324Z,20.32
2022-12-19T23:37:53.701Z,20.31
2022-12-19T23:40:20.059Z,20.29
2022-12-19T23:42:46.408Z,20.28
2022-12-19T23:45:12.896Z,20.29
2022-12-19T23:47:40.191Z,20.28
2022-12-19T23:50:06.805Z,20.27
2022-12-19T23:52:33.127Z,20.26
2022-12-19T23:54:59.763Z,20.27
2022-12-19T23:57:26.094Z,20.26
2022-12-19T23:59:52.432Z,20.26
